Time;durP1;ratioP1;P1;durP2;ratioP2;P2;SDS_P1;SDS_P2;PMS_P1;PMS_P2;Temp;Humidity;BMP_temperature;BMP_pressure;BME280_temperature;BME280_humidity;BME280_pressure;Samples;Min_cycle;Max_cycle;Signal;HPM_P1;HPM_P2
2022/12/02 00:01:40;;;;;;;39.00;15.30;;;;;;;4.84;80.11;99623.84;1660578;85;21134;-76
2022/12/02 00:04:25;;;;;;;35.38;14.68;;;;;;;4.85;80.24;99621.69;1658739;85;21615;-77
2022/12/02 00:06:56;;;;;;;37.28;15.18;;;;;;;4.88;80.38;99626.87;1660250;85;21107;-76
2022/12/02 00:09:35;;;;;;;35.15;15.75;;;;;;;4.86;80.28;99620.86;1659980;86;20985;-76
2022/12/02 00:12:17;;;;;;;35.25;14.83;;;;;;;4.85;80.40;99622.13;1659747;86;20980;-76
2022/12/02 00:14:44;;;;;;;35.95;15.35;;;;;;;4.84;80.25;99622.56;1660182;86;21064;-77
2022/12/02 00:17:12;;;;;;;35.75;14.98;;;;;;;4.81;80.34;99619.95;1659212;85;21540;-76
2022/12/02 00:19:40;;;;;;;30.57;14.15;;;;;;;4.87;80.57;99619.98;1654468;86;21973;-77
2022/12/02 00:22:07;;;;;;;33.50;14.45;;;;;;;4.89;80.65;99620.00;1657287;86;21100;-77
2022/12/02 00:24:34;;;;;;;35.75;15.72;;;;;;;4.88;80.56;99619.15;1653224;86;21049;-76
2022/12/02 00:27:01;;;;;;;32.85;14.28;;;;;;;4.90;80.56;99623.03;1657084;85;21065;-76
2022/12/02 00:29:29;;;;;;;32.03;14.07;;;;;;;4.90;80.46;99621.74;1652345;85;21618;-76
2022/12/02 00:31:56;;;;;;;32.50;13.98;;;;;;;4.93;80.47;99632.94;1656493;86;21103;-77
2022/12/02 00:34:24;;;;;;;36.05;14.35;;;;;;;4.96;80.59;99627.78;1652234;85;21016;-76
2022/12/02 00:36:51;;;;;;;33.05;14.23;;;;;;;4.98;80.53;99627.80;1655540;86;21008;-76
2022/12/02 00:39:19;;;;;;;30.10;14.73;;;;;;;5.03;80.58;99638.13;1652602;86;21043;-76
2022/12/02 00:41:47;;;;;;;35.92;14.58;;;;;;;4.98;79.63;99626.08;1657105;86;21546;-76
2022/12/02 00:47:00;;;;;;;35.68;15.78;;;;;;;4.86;80.35;99631.16;1656526;85;21104;-76
2022/12/02 00:49:28;;;;;;;32.70;16.10;;;;;;;4.83;79.87;99631.12;1652650;85;21067;-76
2022/12/02 00:51:55;;;;;;;34.58;15.15;;;;;;;4.81;80.56;99637.98;1655161;86;21101;-76
2022/12/02 00:54:23;;;;;;;32.42;15.78;;;;;;;4.83;80.73;99633.70;1654727;86;21056;-76
2022/12/02 00:56:51;;;;;;;32.63;15.68;;;;;;;4.86;80.70;99638.03;1652505;86;21070;-77
2022/12/02 00:59:18;;;;;;;36.10;16.25;;;;;;;4.89;80.74;99627.73;1652522;86;21424;-76
2022/12/02 01:01:47;;;;;;;34.90;14.75;;;;;;;4.93;80.72;99632.05;1654648;86;21033;-77
2022/12/02 01:04:15;;;;;;;36.10;15.95;;;;;;;4.93;80.51;99639.38;1660005;86;21073;-77
2022/12/02 01:06:42;;;;;;;37.88;16.17;;;;;;;4.94;80.58;99628.20;1654906;86;21049;-77
2022/12/02 01:09:10;;;;;;;36.98;16.42;;;;;;;4.94;80.40;99628.20;1659363;86;21022;-77
2022/12/02 01:11:38;;;;;;;33.55;16.77;;;;;;;4.90;80.16;99631.61;1654695;86;21076;-77
2022/12/02 01:14:05;;;;;;;32.53;15.65;;;;;;;4.78;80.17;99631.54;1658795;86;21045;-77
2022/12/02 01:16:33;;;;;;;38.75;16.15;;;;;;;4.79;80.34;99633.25;1658590;86;21379;-76
2022/12/02 01:19:00;;;;;;;37.55;17.07;;;;;;;4.73;80.28;99634.49;1658976;86;21047;-77
2022/12/02 01:21:28;;;;;;;34.45;14.95;;;;;;;4.63;80.76;99635.28;1656784;86;21063;-77
2022/12/02 01:23:55;;;;;;;34.65;15.58;;;;;;;4.56;81.01;99638.25;1657901;86;21062;-76
2022/12/02 01:26:23;;;;;;;34.30;15.90;;;;;;;4.52;81.44;99632.20;1656987;86;21012;-77
2022/12/02 01:28:50;;;;;;;35.73;16.42;;;;;;;4.48;81.36;99636.04;1657792;86;20986;-76
2022/12/02 01:31:18;;;;;;;37.13;16.50;;;;;;;4.43;81.32;99629.55;1653011;86;21067;-76
2022/12/02 01:33:46;;;;;;;46.83;17.12;;;;;;;4.46;81.53;99627.01;1656558;86;21013;-76
2022/12/02 01:36:13;;;;;;;39.13;15.90;;;;;;;4.44;81.52;99630.00;1661245;86;21039;-77
2022/12/02 01:38:41;;;;;;;39.08;17.32;;;;;;;4.38;81.47;99627.37;1655399;86;20999;-77
2022/12/02 01:41:09;;;;;;;38.95;17.85;;;;;;;4.34;81.84;99625.63;1656483;86;21606;-77
2022/12/02 01:43:37;;;;;;;45.90;18.55;;;;;;;4.31;81.97;99626.44;1631713;86;22218;-76
2022/12/02 01:46:05;;;;;;;62.08;24.35;;;;;;;4.34;81.95;99617.47;1633497;86;21879;-77
2022/12/02 01:48:35;;;;;;;74.70;27.00;;;;;;;4.37;81.79;99612.33;1653447;86;21059;-76
2022/12/02 01:51:05;;;;;;;53.10;21.73;;;;;;;4.38;81.78;99610.20;1661120;86;21467;-76
2022/12/02 01:53:34;;;;;;;50.50;19.02;;;;;;;4.43;82.34;99613.23;1653787;86;21811;-77
2022/12/02 01:56:02;;;;;;;44.35;17.92;;;;;;;4.44;82.07;99609.83;1660348;86;20975;-77
2022/12/02 01:58:30;;;;;;;42.20;19.20;;;;;;;4.44;81.99;99605.53;1640444;86;21028;-78
2022/12/02 02:00:58;;;;;;;48.58;20.50;;;;;;;4.44;81.90;99602.96;1659485;86;20959;-77
2022/12/02 02:03:26;;;;;;;45.45;18.48;;;;;;;4.49;82.23;99601.70;1654411;86;20996;-77
2022/12/02 02:05:54;;;;;;;41.58;17.75;;;;;;;4.54;82.55;99611.19;1659348;86;21006;-77
2022/12/02 02:08:22;;;;;;;47.70;18.30;;;;;;;4.58;81.96;99601.34;1632024;86;21063;-76
2022/12/02 02:10:50;;;;;;;49.20;18.82;;;;;;;4.61;82.26;99600.50;1657953;86;21010;-77
2022/12/02 02:13:17;;;;;;;37.58;17.90;;;;;;;4.74;82.58;99600.17;1660551;86;21029;-77
2022/12/02 02:15:45;;;;;;;43.92;18.48;;;;;;;4.83;82.38;99600.64;1657148;86;20978;-77
2022/12/02 02:18:14;;;;;;;45.67;18.87;;;;;;;4.91;82.35;99598.53;1657551;86;20976;-77
2022/12/02 02:20:42;;;;;;;40.43;18.75;;;;;;;4.95;81.84;99601.59;1656285;86;21095;-77
2022/12/02 02:23:22;;;;;;;42.62;16.95;;;;;;;4.95;82.07;99604.17;1661515;86;20985;-77
2022/12/02 02:25:58;;;;;;;33.92;16.40;;;;;;;4.97;81.93;99602.88;1656409;86;21019;-77
2022/12/02 02:28:27;;;;;;;37.53;15.63;;;;;;;4.94;82.14;99603.72;1660761;86;20994;-77
2022/12/02 02:30:56;;;;;;;33.80;16.73;;;;;;;4.96;81.82;99605.03;1655914;86;21075;-77
2022/12/02 02:33:28;;;;;;;34.83;17.48;;;;;;;4.93;82.22;99603.70;1654382;86;21074;-77
2022/12/02 02:35:57;;;;;;;34.88;14.58;;;;;;;4.92;81.86;99604.14;1656426;86;21026;-77
2022/12/02 02:38:27;;;;;;;30.88;16.37;;;;;;;4.87;82.06;99600.66;1659513;86;21037;-76
2022/12/02 02:40:56;;;;;;;37.60;16.05;;;;;;;4.86;81.90;99597.66;1656074;86;21998;-77
2022/12/02 02:43:27;;;;;;;32.70;15.55;;;;;;;4.84;82.04;99604.52;1658956;86;20960;-77
2022/12/02 02:45:57;;;;;;;34.50;14.40;;;;;;;4.82;81.96;99597.65;1656130;86;21067;-76
2022/12/02 02:48:27;;;;;;;30.10;15.38;;;;;;;4.80;82.36;99600.20;1658547;86;21035;-77
2022/12/02 02:50:55;;;;;;;36.58;14.93;;;;;;;4.83;82.43;99603.22;1656455;86;21052;-77
2022/12/02 02:53:26;;;;;;;32.67;15.38;;;;;;;4.77;81.90;99606.61;1643845;86;21601;-77
2022/12/02 02:55:54;;;;;;;42.48;16.30;;;;;;;4.72;82.06;99610.89;1633035;87;21528;-77
2022/12/02 02:58:25;;;;;;;35.48;16.05;;;;;;;4.68;82.06;99614.30;1639466;87;21115;-77
2022/12/02 03:01:23;;;;;;;37.70;14.85;;;;;;;4.64;82.33;99615.98;1646140;87;20984;-77
2022/12/02 03:03:58;;;;;;;38.00;16.77;;;;;;;4.65;82.30;99617.69;1637593;87;21535;-76
2022/12/02 03:06:27;;;;;;;43.63;16.67;;;;;;;4.63;82.51;99612.95;1631702;86;21032;-76
2022/12/02 03:08:56;;;;;;;64.62;24.57;;;;;;;4.66;82.62;99616.86;1636876;87;20991;-77
2022/12/02 03:11:26;;;;;;;97.62;33.92;;;;;;;4.65;82.39;99620.70;1632815;87;21040;-77
2022/12/02 03:13:56;;;;;;;56.58;24.00;;;;;;;4.64;82.69;99621.57;1637423;87;21003;-76
2022/12/02 03:16:25;;;;;;;57.23;22.10;;;;;;;4.68;82.71;99620.30;1642510;87;20987;-76
2022/12/02 03:18:55;;;;;;;39.70;18.40;;;;;;;4.68;82.38;99619.02;1637467;87;20978;-77
2022/12/02 03:21:24;;;;;;;37.80;17.00;;;;;;;4.68;82.41;99622.02;1627179;87;21596;-76
2022/12/02 03:23:56;;;;;;;39.75;16.67;;;;;;;4.68;82.57;99622.88;1632264;87;20991;-77
2022/12/02 03:26:24;;;;;;;32.17;15.38;;;;;;;4.67;82.24;99621.58;1639230;87;21045;-77
2022/12/02 03:28:53;;;;;;;41.00;18.32;;;;;;;4.68;82.54;99627.17;1636515;87;20971;-77
2022/12/02 03:31:22;;;;;;;49.15;19.67;;;;;;;4.68;82.37;99630.61;1634389;87;21004;-77
2022/12/02 03:33:50;;;;;;;46.65;18.48;;;;;;;4.68;82.57;99625.45;1628619;87;21483;-76
2022/12/02 03:36:18;;;;;;;41.42;17.05;;;;;;;4.66;82.54;99627.16;1643465;86;21518;-76
2022/12/02 03:38:46;;;;;;;43.52;17.05;;;;;;;4.67;82.59;99628.02;1635141;87;21576;-77
2022/12/02 03:41:14;;;;;;;43.30;16.57;;;;;;;4.64;82.60;99628.86;1642993;87;21000;-77
2022/12/02 03:43:42;;;;;;;40.85;17.40;;;;;;;4.70;83.04;99641.78;1646051;87;20991;-77
2022/12/02 03:46:10;;;;;;;38.78;15.80;;;;;;;4.76;83.01;99637.11;1643685;86;20994;-76
2022/12/02 03:48:38;;;;;;;38.92;17.62;;;;;;;4.78;82.69;99649.14;1637036;87;20957;-77
2022/12/02 03:51:07;;;;;;;37.55;15.43;;;;;;;4.76;82.55;99641.83;1638982;87;20995;-77
2022/12/02 03:53:35;;;;;;;42.48;15.55;;;;;;;4.78;82.72;99640.55;1646111;86;21000;-76
2022/12/02 03:56:05;;;;;;;38.00;16.73;;;;;;;4.76;82.22;99636.67;1661741;85;20994;-76
2022/12/02 03:58:37;;;;;;;31.33;15.18;;;;;;;4.76;82.26;99643.11;1719022;82;20979;-77
2022/12/02 04:01:05;;;;;;;41.90;17.17;;;;;;;4.76;82.36;99644.83;1714064;82;21034;-77
2022/12/02 04:03:33;;;;;;;44.77;17.02;;;;;;;4.71;82.27;99643.92;1717690;82;21002;-77
2022/12/02 04:06:00;;;;;;;36.77;18.35;;;;;;;4.67;81.94;99643.47;1717958;82;21030;-77
2022/12/02 04:08:28;;;;;;;46.80;17.98;;;;;;;4.61;82.30;99645.56;1716542;82;21058;-76
2022/12/02 04:10:56;;;;;;;41.40;17.10;;;;;;;4.59;82.49;99638.25;1715898;82;21117;-76
2022/12/02 04:13:23;;;;;;;32.70;15.40;;;;;;;4.56;82.30;99641.67;1718833;82;21077;-76
2022/12/02 04:15:51;;;;;;;41.28;16.12;;;;;;;4.56;82.40;99644.25;1713040;82;21458;-76
2022/12/02 04:18:18;;;;;;;35.23;16.73;;;;;;;4.57;82.66;99634.80;1716388;82;21080;-77
2022/12/02 04:20:45;;;;;;;38.35;17.67;;;;;;;4.57;82.66;99637.38;1711825;82;21062;-76
2022/12/02 04:23:13;;;;;;;38.08;16.60;;;;;;;4.55;82.64;99641.22;1719773;82;21304;-76
2022/12/02 04:25:41;;;;;;;41.68;17.50;;;;;;;4.57;82.93;99642.09;1713725;82;21333;-76
2022/12/02 04:28:09;;;;;;;41.95;16.67;;;;;;;4.57;82.92;99639.52;1719851;82;21092;-77
2022/12/02 04:30:36;;;;;;;37.28;16.57;;;;;;;4.55;82.62;99642.95;1713593;82;21038;-76
2022/12/02 04:33:04;;;;;;;38.95;16.42;;;;;;;4.51;82.51;99639.47;1715755;82;21634;-77
2022/12/02 04:35:31;;;;;;;37.30;17.48;;;;;;;4.47;82.69;99642.02;1714685;82;21599;-77
2022/12/02 04:37:59;;;;;;;43.58;17.65;;;;;;;4.37;82.63;99638.07;1714732;82;21629;-77
2022/12/02 04:40:26;;;;;;;38.67;17.25;;;;;;;4.39;82.77;99642.81;1714948;82;21002;-76
2022/12/02 04:42:55;;;;;;;54.73;19.82;;;;;;;4.41;83.18;99640.25;1712563;82;21030;-76
2022/12/02 04:45:22;;;;;;;51.92;20.20;;;;;;;4.43;83.44;99632.12;1720441;82;21002;-77
2022/12/02 04:47:49;;;;;;;38.33;17.82;;;;;;;4.47;83.49;99632.58;1713378;82;21073;-77
2022/12/02 04:50:17;;;;;;;46.42;18.67;;;;;;;4.45;83.10;99636.00;1719770;82;21097;-76
2022/12/02 04:52:45;;;;;;;49.65;18.60;;;;;;;4.45;82.99;99638.58;1713184;82;21074;-76
2022/12/02 04:55:12;;;;;;;43.38;19.85;;;;;;;4.40;82.92;99635.97;1718937;82;21056;-76
2022/12/02 04:57:39;;;;;;;39.63;18.37;;;;;;;4.37;83.18;99633.35;1713814;82;21063;-76
2022/12/02 05:00:09;;;;;;;45.58;18.75;;;;;;;4.31;83.46;99635.87;1717004;82;20995;-76
2022/12/02 05:02:36;;;;;;;48.92;19.77;;;;;;;4.27;82.62;99636.70;1716012;82;21491;-77
2022/12/02 05:05:05;;;;;;;49.65;20.30;;;;;;;4.17;83.36;99637.89;1717613;82;21503;-76
2022/12/02 05:07:32;;;;;;;44.25;19.62;;;;;;;4.14;83.05;99643.46;1715487;82;21058;-77
2022/12/02 05:09:59;;;;;;;49.42;18.50;;;;;;;4.09;83.54;99647.25;1716992;82;20998;-77
2022/12/02 05:12:27;;;;;;;41.75;18.25;;;;;;;4.08;83.62;99644.66;1715124;82;21039;-77
2022/12/02 05:14:54;;;;;;;41.28;18.57;;;;;;;4.05;83.58;99645.50;1716418;82;20978;-76
2022/12/02 05:17:22;;;;;;;44.30;17.62;;;;;;;4.00;83.20;99644.61;1720774;82;20983;-77
2022/12/02 05:19:49;;;;;;;46.40;18.70;;;;;;;3.95;83.46;99648.40;1715270;82;21022;-77
2022/12/02 05:22:17;;;;;;;41.00;17.57;;;;;;;3.96;84.50;99648.85;1717853;82;21178;-76
2022/12/02 05:24:46;;;;;;;43.70;18.27;;;;;;;4.00;84.38;99645.89;1713561;82;21014;-77
2022/12/02 05:27:14;;;;;;;40.58;18.23;;;;;;;4.01;83.96;99652.75;1717861;82;21025;-76
2022/12/02 05:29:41;;;;;;;42.90;18.67;;;;;;;3.93;84.13;99651.81;1710783;82;21145;-77
2022/12/02 05:32:10;;;;;;;42.58;18.75;;;;;;;3.85;83.98;99645.29;1688649;82;21811;-76
2022/12/02 05:34:37;;;;;;;44.18;18.80;;;;;;;3.83;84.44;99648.27;1728355;82;21082;-76
2022/12/02 05:37:05;;;;;;;45.78;20.88;;;;;;;3.83;84.69;99653.41;1719254;82;21026;-75
2022/12/02 05:39:32;;;;;;;51.35;21.90;;;;;;;3.79;83.35;99650.37;1711364;82;21597;-76
2022/12/02 05:42:05;;;;;;;52.20;21.10;;;;;;;3.64;83.25;99654.93;1716950;82;21525;-76
2022/12/02 05:44:34;;;;;;;52.15;21.97;;;;;;;3.48;83.89;99655.17;1711777;82;21023;-76
2022/12/02 05:47:14;;;;;;;49.42;20.45;;;;;;;3.43;83.72;99658.09;1718924;82;20998;-76
2022/12/02 05:49:44;;;;;;;58.20;21.40;;;;;;;3.27;83.95;99655.74;1713203;82;20979;-76
2022/12/02 05:52:26;;;;;;;43.95;18.87;;;;;;;3.23;84.34;99661.69;1717644;82;20954;-76
2022/12/02 05:54:58;;;;;;;37.78;18.23;;;;;;;3.18;84.79;99666.77;1719632;82;20992;-76
2022/12/02 05:57:29;;;;;;;43.13;18.12;;;;;;;3.15;84.19;99664.58;1716781;82;21002;-76
2022/12/02 06:00:12;;;;;;;44.88;19.73;;;;;;;3.12;84.85;99668.37;1719242;82;20959;-76
2022/12/02 06:02:47;;;;;;;43.55;16.93;;;;;;;3.09;85.65;99678.63;1705298;82;21014;-76
2022/12/02 06:05:25;;;;;;;41.88;16.73;;;;;;;3.05;85.14;99673.00;1718019;82;20975;-76
2022/12/02 06:08:02;;;;;;;38.58;16.80;;;;;;;2.96;84.58;99678.45;1716986;82;21132;-75
2022/12/02 06:10:32;;;;;;;38.25;15.18;;;;;;;2.90;84.65;99678.33;1715936;83;21067;-76
2022/12/02 06:13:24;;;;;;;34.53;13.43;;;;;;;2.86;84.35;99679.55;1716493;82;21002;-76
2022/12/02 06:15:53;;;;;;;36.30;15.70;;;;;;;2.85;84.34;99681.27;1683058;82;21065;-76
2022/12/02 06:18:31;;;;;;;37.70;15.28;;;;;;;2.79;84.23;99683.73;1719795;82;21026;-76
2022/12/02 06:21:02;;;;;;;38.80;16.70;;;;;;;2.78;84.39;99678.14;1716276;82;22243;-76
2022/12/02 06:23:32;;;;;;;33.53;14.98;;;;;;;2.81;84.35;99686.34;1715835;82;21041;-76
2022/12/02 06:25:59;;;;;;;33.98;14.73;;;;;;;2.79;84.11;99683.73;1715943;82;21007;-76
2022/12/02 06:28:31;;;;;;;38.98;15.53;;;;;;;2.76;84.23;99690.09;1714406;82;21089;-76
2022/12/02 06:31:09;;;;;;;40.20;15.55;;;;;;;2.70;83.75;99687.43;1715572;82;21038;-76
2022/12/02 06:33:38;;;;;;;48.87;17.87;;;;;;;2.66;83.78;99693.36;1713959;82;21042;-76
2022/12/02 06:36:14;;;;;;;64.03;24.37;;;;;;;2.66;83.97;99689.08;1716131;82;21526;-75
2022/12/02 06:38:56;;;;;;;45.67;18.25;;;;;;;2.70;84.02;99683.58;1714396;82;21787;-76
2022/12/02 06:41:27;;;;;;;53.38;19.30;;;;;;;2.72;83.88;99688.32;1718185;82;20972;-75
2022/12/02 06:46:49;;;;;;;40.25;18.32;;;;;;;2.72;84.01;99685.75;1722205;83;20982;-76
2022/12/02 06:49:23;;;;;;;50.20;19.73;;;;;;;2.69;83.91;99679.30;1722640;82;21037;-76
2022/12/02 06:52:00;;;;;;;42.27;19.75;;;;;;;2.70;84.42;99684.86;1717252;82;20960;-76
2022/12/02 06:54:31;;;;;;;47.17;19.67;;;;;;;2.78;84.89;99685.42;1713927;82;21014;-75
2022/12/02 06:57:01;;;;;;;43.80;18.62;;;;;;;2.85;84.76;99690.25;1718570;82;20987;-76
2022/12/02 06:59:30;;;;;;;51.35;20.23;;;;;;;2.92;84.55;99693.34;1713158;82;21007;-75
2022/12/02 07:02:01;;;;;;;43.75;20.35;;;;;;;2.95;84.56;99688.69;1721617;83;20974;-75
2022/12/02 07:04:45;;;;;;;46.77;21.48;;;;;;;3.00;84.41;99683.19;1715749;82;21963;-76
2022/12/02 07:07:21;;;;;;;;;;;;;;;3.04;84.45;99690.52;1722148;82;21054;-76
2022/12/02 07:10:00;;;;;;;58.83;23.52;;;;;;;3.07;84.33;99691.86;1714641;82;20137;-75
2022/12/02 07:12:44;;;;;;;46.00;19.42;;;;;;;3.08;84.24;99689.72;1718626;82;20974;-75
2022/12/02 07:15:30;;;;;;;54.45;21.50;;;;;;;3.13;84.31;99697.09;1714159;82;21011;-76
2022/12/02 07:18:11;;;;;;;47.78;21.85;;;;;;;3.18;84.22;99701.85;1716498;82;21041;-76
2022/12/02 07:20:42;;;;;;;51.02;24.98;;;;;;;3.27;84.03;99697.28;1710155;82;21034;-76
2022/12/02 07:23:23;;;;;;;120.50;37.48;;;;;;;3.27;83.86;99693.00;1721559;82;21030;-75
2022/12/02 07:25:54;;;;;;;90.47;30.70;;;;;;;3.27;83.67;99694.28;1714711;82;21019;-76
2022/12/02 07:28:36;;;;;;;90.42;30.92;;;;;;;3.28;83.93;99694.75;1720392;82;21018;-76
2022/12/02 07:31:26;;;;;;;61.55;25.12;;;;;;;3.34;84.28;99696.52;1713898;82;20983;-75
2022/12/02 07:33:54;;;;;;;59.45;24.92;;;;;;;3.36;84.08;99694.83;1715354;83;21486;-75
2022/12/02 07:36:21;;;;;;;55.43;24.65;;;;;;;3.33;83.80;99697.38;1713494;82;21520;-76
2022/12/02 07:38:49;;;;;;;59.80;25.82;;;;;;;3.31;84.39;99696.48;1718930;82;21042;-76
2022/12/02 07:41:18;;;;;;;64.58;24.87;;;;;;;3.32;84.05;99697.80;1712579;82;21859;-76
2022/12/02 07:43:45;;;;;;;56.80;24.77;;;;;;;3.32;84.05;99698.20;1717653;82;21384;-75
2022/12/02 07:46:13;;;;;;;58.95;25.37;;;;;;;3.34;84.46;99693.94;1713261;82;20979;-76
2022/12/02 07:48:40;;;;;;;60.92;24.98;;;;;;;3.40;84.51;99703.02;1720625;82;20994;-76
2022/12/02 07:51:08;;;;;;;57.73;24.27;;;;;;;3.47;84.53;99695.84;1707511;82;21522;-76
2022/12/02 07:53:35;;;;;;;53.13;23.55;;;;;;;3.54;84.50;99698.06;1718197;82;20982;-75
2022/12/02 07:56:04;;;;;;;59.20;24.47;;;;;;;3.63;84.94;99699.91;1714944;82;21019;-75
2022/12/02 07:58:32;;;;;;;62.53;25.92;;;;;;;3.74;84.94;99700.48;1716049;82;20985;-75
2022/12/02 08:00:59;;;;;;;57.48;26.45;;;;;;;3.87;84.57;99698.05;1715651;82;20956;-76
2022/12/02 08:03:27;;;;;;;57.65;25.12;;;;;;;3.98;84.62;99700.33;1716176;82;20966;-77
2022/12/02 08:05:54;;;;;;;57.35;25.40;;;;;;;4.09;84.49;99699.15;1716515;82;21095;-76
2022/12/02 08:08:22;;;;;;;62.90;25.68;;;;;;;4.22;84.48;99702.70;1713779;82;21070;-75
2022/12/02 08:10:49;;;;;;;59.15;24.80;;;;;;;4.35;84.56;99708.42;1721809;82;21042;-76
2022/12/02 08:13:17;;;;;;;56.55;25.92;;;;;;;4.50;84.46;99709.86;1716206;82;20967;-76
2022/12/02 08:15:44;;;;;;;59.18;26.12;;;;;;;4.64;84.07;99709.98;1721133;82;21158;-78
2022/12/02 08:18:11;;;;;;;63.70;28.57;;;;;;;4.79;83.55;99711.81;1717036;82;21007;-76
2022/12/02 08:20:39;;;;;;;57.60;27.07;;;;;;;4.86;83.32;99720.48;1720628;82;21112;-75
2022/12/02 08:23:06;;;;;;;58.60;25.97;;;;;;;4.94;83.10;99715.81;1711569;83;20955;-75
2022/12/02 08:25:34;;;;;;;64.22;27.55;;;;;;;5.05;83.02;99715.02;1719471;82;21010;-75
2022/12/02 08:28:01;;;;;;;62.27;29.80;;;;;;;5.12;82.88;99713.79;1700094;82;21018;-76
2022/12/02 08:30:29;;;;;;;62.93;29.23;;;;;;;5.17;82.83;99711.23;1719426;82;21018;-76
2022/12/02 08:32:56;;;;;;;63.48;29.92;;;;;;;5.25;82.50;99717.33;1718144;82;20959;-76
2022/12/02 08:35:24;;;;;;;49.95;23.18;;;;;;;5.33;82.26;99710.50;1717891;82;20993;-75
2022/12/02 08:37:51;;;;;;;51.77;24.25;;;;;;;5.41;81.96;99716.11;1718156;82;20963;-76
2022/12/02 08:40:19;;;;;;;60.03;22.90;;;;;;;5.45;81.61;99715.27;1716315;82;21002;-75
2022/12/02 08:42:47;;;;;;;47.65;22.22;;;;;;;5.51;81.58;99717.48;1718238;82;21006;-76
2022/12/02 08:45:14;;;;;;;56.98;23.85;;;;;;;5.60;81.75;99723.53;1714787;82;20970;-76
2022/12/02 08:47:42;;;;;;;49.80;22.93;;;;;;;5.66;81.38;99724.85;1718413;82;20982;-76
2022/12/02 08:50:10;;;;;;;48.95;22.73;;;;;;;5.74;81.08;99716.72;1715638;82;21019;-76
2022/12/02 08:52:37;;;;;;;50.78;23.80;;;;;;;5.79;81.25;99722.77;1718171;82;21053;-76
2022/12/02 08:55:05;;;;;;;44.03;22.32;;;;;;;5.78;80.71;99716.73;1711910;82;21026;-75
2022/12/02 08:57:32;;;;;;;49.42;22.25;;;;;;;5.80;80.60;99715.89;1721920;83;21977;-76
2022/12/02 09:00:00;;;;;;;46.50;22.52;;;;;;;5.82;80.47;99715.03;1711493;83;21573;-76
2022/12/02 09:02:27;;;;;;;42.20;22.02;;;;;;;5.87;80.40;99724.06;1720056;83;21533;-76
2022/12/02 09:04:55;;;;;;;46.45;22.25;;;;;;;5.96;80.53;99710.81;1709051;82;22197;-76
2022/12/02 09:07:22;;;;;;;55.63;22.73;;;;;;;6.04;80.20;99717.29;1716773;82;22252;-76
2022/12/02 09:09:50;;;;;;;45.80;22.40;;;;;;;6.14;80.02;99713.88;1715749;83;21630;-76
2022/12/02 09:12:17;;;;;;;49.40;23.40;;;;;;;6.21;80.04;99711.30;1725392;83;22085;-76
2022/12/02 09:14:45;;;;;;;49.35;21.27;;;;;;;6.25;79.32;99715.21;1720889;83;21633;-77
2022/12/02 09:17:12;;;;;;;44.03;21.75;;;;;;;6.28;79.04;99711.77;1703654;82;21948;-76
2022/12/02 09:19:40;;;;;;;40.33;20.68;;;;;;;6.28;78.46;99710.47;1689266;83;21638;-76
2022/12/02 09:22:07;;;;;;;45.20;20.97;;;;;;;6.28;78.09;99707.89;1688026;83;21625;-76
2022/12/02 09:24:35;;;;;;;45.25;19.90;;;;;;;6.31;78.49;99706.62;1686523;83;21011;-76
2022/12/02 09:27:02;;;;;;;42.95;19.32;;;;;;;6.33;78.51;99710.06;1689143;83;21081;-76
2022/12/02 09:29:30;;;;;;;53.00;20.62;;;;;;;6.38;79.21;99701.88;1688869;83;21047;-77
2022/12/02 09:31:57;;;;;;;47.23;22.37;;;;;;;6.41;78.90;99701.90;1690846;83;20999;-77
2022/12/02 09:34:25;;;;;;;41.48;21.23;;;;;;;6.41;78.93;99695.87;1693878;83;21042;-76
2022/12/02 09:36:52;;;;;;;42.80;20.40;;;;;;;6.44;79.91;99701.03;1688391;83;21081;-75
2022/12/02 09:39:20;;;;;;;48.75;19.87;;;;;;;6.37;78.85;99698.88;1687966;83;21083;-77
2022/12/02 09:41:48;;;;;;;36.33;18.12;;;;;;;6.37;78.02;99704.05;1687654;83;21076;-75
2022/12/02 09:44:16;;;;;;;43.55;19.52;;;;;;;6.45;78.56;99705.35;1689350;83;21109;-77
2022/12/02 09:46:43;;;;;;;30.68;15.50;;;;;;;6.47;78.16;99695.88;1691044;83;21023;-76
2022/12/02 09:49:11;;;;;;;43.92;18.80;;;;;;;6.51;78.58;99689.42;1693212;83;21050;-77
2022/12/02 09:51:38;;;;;;;39.30;18.52;;;;;;;6.59;78.14;99695.03;1687789;83;21091;-77
2022/12/02 09:54:06;;;;;;;44.27;20.65;;;;;;;6.71;78.45;99687.28;1686518;83;21375;-77
2022/12/02 09:56:35;;;;;;;43.05;20.27;;;;;;;6.84;77.93;99683.81;1653022;84;20998;-77
2022/12/02 09:59:05;;;;;;;41.80;20.20;;;;;;;6.92;77.71;99686.39;1645054;85;21038;-76
2022/12/02 10:01:33;;;;;;;39.25;21.50;;;;;;;7.02;77.57;99689.84;1650146;85;21008;-77
2022/12/02 10:04:00;;;;;;;43.58;21.50;;;;;;;7.06;77.72;99686.38;1650750;86;21015;-77
2022/12/02 10:06:28;;;;;;;42.62;21.45;;;;;;;7.11;77.93;99688.55;1649898;85;20981;-77
2022/12/02 10:08:57;;;;;;;51.68;20.27;;;;;;;7.14;77.58;99684.64;1651050;85;21480;-77
2022/12/02 10:11:32;;;;;;;35.35;17.45;;;;;;;7.20;76.98;99682.48;1652657;87;20991;-76
2022/12/02 10:14:02;;;;;;;39.98;18.32;;;;;;;7.26;77.05;99684.64;1651793;85;21047;-77
2022/12/02 10:16:30;;;;;;;30.60;15.58;;;;;;;7.28;76.98;99683.32;1651288;87;20951;-76
2022/12/02 10:19:01;;;;;;;25.08;14.23;;;;;;;7.29;76.35;99680.73;1699784;82;20920;-78
2022/12/02 10:21:28;;;;;;;28.80;15.50;;;;;;;7.31;76.51;99681.59;1709042;83;20983;-77
2022/12/02 10:24:01;;;;;;;30.77;14.90;;;;;;;7.37;76.35;99676.41;1703984;83;21022;-77
2022/12/02 10:26:50;;;;;;;33.00;15.08;;;;;;;7.37;75.76;99676.84;1706714;83;21003;-77
2022/12/02 10:29:28;;;;;;;26.60;13.80;;;;;;;7.42;75.82;99679.41;1703893;84;21451;-76
2022/12/02 10:32:03;;;;;;;24.80;12.65;;;;;;;7.47;75.93;99678.97;1706495;83;21515;-76
2022/12/02 10:34:34;;;;;;;25.80;13.10;;;;;;;7.55;75.26;99684.98;1706099;83;20975;-77
2022/12/02 10:37:23;;;;;;;29.87;14.20;;;;;;;7.65;74.57;99681.93;1706090;82;21581;-77
2022/12/02 10:40:20;;;;;;;25.75;12.75;;;;;;;7.60;74.57;99678.08;1705766;83;20971;-77
2022/12/02 10:42:52;;;;;;;24.05;12.68;;;;;;;7.61;75.31;99685.40;1707417;84;21042;-77
2022/12/02 10:45:23;;;;;;;26.97;13.60;;;;;;;7.58;74.31;99672.05;1700586;83;21018;-77
2022/12/02 10:47:56;;;;;;;25.88;13.53;;;;;;;7.68;75.63;99671.14;1703385;83;20984;-76
2022/12/02 10:50:24;;;;;;;30.02;17.52;;;;;;;7.64;74.13;99667.25;1700818;84;20979;-77
2022/12/02 10:52:55;;;;;;;29.98;16.23;;;;;;;7.61;74.76;99665.98;1702840;84;21574;-77
2022/12/02 10:55:23;;;;;;;34.23;15.30;;;;;;;7.59;74.56;99663.40;1706888;83;21538;-77
2022/12/02 10:57:51;;;;;;;26.97;14.30;;;;;;;7.61;74.44;99659.08;1707322;84;20969;-77
2022/12/02 11:00:24;;;;;;;25.35;12.40;;;;;;;7.69;74.74;99659.05;1708721;84;21898;-77
2022/12/02 11:02:56;;;;;;;25.82;13.03;;;;;;;7.75;75.34;99663.75;1703235;84;21015;-77
2022/12/02 11:05:30;;;;;;;21.30;11.73;;;;;;;7.78;73.35;99659.02;1706570;83;21022;-77
2022/12/02 11:08:17;;;;;;;22.37;10.45;;;;;;;7.87;73.73;99665.43;1703050;83;22011;-77
2022/12/02 11:10:47;;;;;;;21.37;10.30;;;;;;;7.85;73.59;99663.28;1702898;82;20976;-76
2022/12/02 11:13:36;;;;;;;25.80;10.72;;;;;;;7.69;73.35;99660.34;1707097;83;21574;-77
2022/12/02 11:16:38;;;;;;;24.45;11.03;;;;;;;7.64;73.07;99657.79;1703793;83;20991;-76
2022/12/02 11:19:33;;;;;;;22.55;10.43;;;;;;;7.72;73.53;99655.17;1704295;82;20967;-77
2022/12/02 11:22:02;;;;;;;23.15;11.15;;;;;;;7.66;74.26;99653.47;1709718;83;21546;-77
2022/12/02 11:24:33;;;;;;;31.87;11.03;;;;;;;7.64;74.15;99647.44;1707929;83;21042;-76
2022/12/02 11:27:05;;;;;;;25.27;11.60;;;;;;;7.65;73.37;99649.58;1705277;83;21062;-77
2022/12/02 11:29:42;;;;;;;29.50;12.93;;;;;;;7.62;72.86;99644.41;1704474;83;21090;-76
2022/12/02 11:32:22;;;;;;;27.37;11.97;;;;;;;7.56;72.97;99647.91;1686806;83;21954;-78
2022/12/02 11:35:00;;;;;;;30.23;12.63;;;;;;;7.58;73.75;99643.59;1702587;82;21058;-76
2022/12/02 11:37:36;;;;;;;20.12;10.95;;;;;;;7.49;72.73;99636.70;1704926;84;21042;-77
2022/12/02 11:40:16;;;;;;;20.77;10.43;;;;;;;7.50;73.64;99638.84;1706577;83;21042;-76
2022/12/02 11:42:43;;;;;;;22.25;10.53;;;;;;;7.45;71.84;99650.95;1701661;84;21990;-77
2022/12/02 11:45:16;;;;;;;20.00;10.28;;;;;;;7.45;73.77;99637.58;1708317;84;21110;-77
2022/12/02 11:47:59;;;;;;;21.73;9.68;;;;;;;7.50;73.42;99644.02;1698580;83;21560;-77